Portada
METAR-TAF:

METAR-TAF

Aeroports :

Schenectady County Airport

Schenectady, Nova York, Estats Units d'Amèrica

latitud: 42-51N, longitud: 073-56W, altitud: 115 m

Observació

L'informe es va fer fa 1 hora i 4 minuts, a les 16:48 UTC
Vent 8 kt del Sud amb ràfegues de 16 kt
Temperatura 22°C
Humitat 60%
Pressió 1022 hPa
Visibilitat: 24.1 km
Núvols disperses a una alçada de 2500 ft
Núvols disperses a una alçada de 15000 ft
Núvols disperses a una alçada de 25000 ft

METAR: KSCH 251648Z COR 18008G16KT 15SM SCT025 SCT150 SCT250 22/14 A3018

Hora: 13:52 (17:52 UTC)


TAF: manca

Observacions i pronòstics meteorològics de més de 4000 aeroports (METAR i TAF).

Les estacions disponibles són els punts grocs i vermells al mapa.

Posi el ratolí al punt desitjat per veure el nom de l'estació.

Feu clic per veure les observacions i els pronòstics meteorològics.

Per canviar el mapa: feu clic els botons verds amb una creu de color negre per apropar; al botó verd amb un guió per allunyar la imatge; o en les fletxes verdes per a mapes adjacents.


METAR-TAF: